createdAt,value
2023-03-25T00:00:18.826Z,4.72
2023-03-25T00:02:52.553Z,4.53
2023-03-25T00:05:21.753Z,5.30
2023-03-25T00:07:52.246Z,4.78
2023-03-25T00:10:20.335Z,4.75
2023-03-25T00:12:47.515Z,5.13
2023-03-25T00:15:16.353Z,4.70
2023-03-25T00:17:44.310Z,4.57
2023-03-25T00:20:12.683Z,4.85
2023-03-25T00:22:44.435Z,4.50
2023-03-25T00:25:20.368Z,4.30
2023-03-25T00:27:48.981Z,4.53
2023-03-25T00:30:18.416Z,5.07
2023-03-25T00:32:49.798Z,4.50
2023-03-25T00:35:19.495Z,4.43
2023-03-25T00:37:57.201Z,5.05
2023-03-25T00:40:24.544Z,4.57
2023-03-25T00:42:51.809Z,4.78
2023-03-25T00:45:18.838Z,4.13
2023-03-25T00:47:46.173Z,4.93
2023-03-25T00:50:14.109Z,4.65
2023-03-25T00:52:41.472Z,5.10
2023-03-25T00:55:09.303Z,4.50
2023-03-25T00:57:36.815Z,4.53
2023-03-25T01:00:08.472Z,4.53
2023-03-25T01:02:36.484Z,4.68
2023-03-25T01:05:04.415Z,4.60
2023-03-25T01:07:32.140Z,5.05
2023-03-25T01:09:59.782Z,4.75
2023-03-25T01:12:27.154Z,4.90
2023-03-25T01:14:54.865Z,5.28
2023-03-25T01:17:21.908Z,5.82
2023-03-25T01:19:48.891Z,4.78
2023-03-25T01:22:15.870Z,5.10
2023-03-25T01:24:43.090Z,5.20
2023-03-25T01:27:09.999Z,5.28
2023-03-25T01:29:36.998Z,4.93
2023-03-25T01:32:04.418Z,4.57
2023-03-25T01:34:33.665Z,5.10
2023-03-25T01:37:01.097Z,6.38
2023-03-25T01:39:28.259Z,5.13
2023-03-25T01:41:55.480Z,5.07
2023-03-25T01:44:22.841Z,7.85
2023-03-25T01:46:54.508Z,5.28
2023-03-25T01:49:24.178Z,4.95
2023-03-25T01:52:06.118Z,5.78
2023-03-25T01:54:33.926Z,6.03
2023-03-25T01:57:01.517Z,5.63
2023-03-25T01:59:29.366Z,5.88
2023-03-25T02:02:02.351Z,5.25
2023-03-25T02:04:40.416Z,5.68
2023-03-25T02:07:11.414Z,5.32
2023-03-25T02:09:39.428Z,5.60
2023-03-25T02:12:07.768Z,5.00
2023-03-25T02:14:37.324Z,5.43
2023-03-25T02:17:29.147Z,5.72
2023-03-25T02:20:20.663Z,5.55
2023-03-25T02:22:57.073Z,5.70
2023-03-25T02:25:57.009Z,5.88
2023-03-25T02:28:47.697Z,5.22
2023-03-25T02:31:45.829Z,5.93
2023-03-25T02:34:37.848Z,6.15
2023-03-25T02:37:31.436Z,7.30
2023-03-25T02:40:10.072Z,8.13
2023-03-25T02:43:33.419Z,6.28
2023-03-25T02:46:08.871Z,5.38
2023-03-25T02:49:08.773Z,5.40
2023-03-25T02:51:51.297Z,5.30
2023-03-25T02:54:20.315Z,5.55
2023-03-25T02:56:51.014Z,5.65
2023-03-25T02:59:22.134Z,6.07
2023-03-25T03:01:50.564Z,5.53
2023-03-25T03:04:18.837Z,5.88
2023-03-25T03:06:46.079Z,6.05
2023-03-25T03:09:32.740Z,5.75
2023-03-25T03:12:14.326Z,5.72
2023-03-25T03:15:00.555Z,5.68
2023-03-25T03:17:50.265Z,5.72
2023-03-25T03:20:36.082Z,6.20
2023-03-25T03:23:24.384Z,5.68
2023-03-25T03:26:04.679Z,5.82
2023-03-25T03:28:55.397Z,5.20
2023-03-25T03:31:48.303Z,6.28
2023-03-25T03:34:24.352Z,5.87
2023-03-25T03:36:54.264Z,5.43
2023-03-25T03:39:33.201Z,6.27
2023-03-25T03:42:09.013Z,5.63
2023-03-25T03:44:39.400Z,5.85
2023-03-25T03:47:18.305Z,6.53
2023-03-25T03:50:04.053Z,8.73
2023-03-25T03:52:43.146Z,5.80
2023-03-25T03:55:17.477Z,6.30
2023-03-25T03:58:03.525Z,6.25
2023-03-25T04:00:49.868Z,6.15
2023-03-25T04:03:34.851Z,6.40
2023-03-25T04:06:13.493Z,6.03
2023-03-25T04:08:58.823Z,6.15
2023-03-25T04:11:43.767Z,6.03
2023-03-25T04:14:13.193Z,6.75
2023-03-25T04:16:40.332Z,6.25
2023-03-25T04:19:07.432Z,6.95
2023-03-25T04:21:34.530Z,6.80
2023-03-25T04:24:02.817Z,7.00
2023-03-25T04:26:33.659Z,7.43
2023-03-25T04:29:01.849Z,6.80
2023-03-25T04:31:33.401Z,7.00
2023-03-25T04:34:02.331Z,8.15
2023-03-25T04:36:29.376Z,7.33
2023-03-25T04:38:56.429Z,6.93
2023-03-25T04:41:23.892Z,7.53
2023-03-25T04:43:50.857Z,6.90
2023-03-25T04:46:18.654Z,7.53
2023-03-25T04:48:47.448Z,7.93
2023-03-25T04:51:16.012Z,7.30
2023-03-25T04:53:43.397Z,7.27
2023-03-25T04:56:16.390Z,8.32
2023-03-25T04:58:45.508Z,7.90
2023-03-25T05:01:31.059Z,7.23
2023-03-25T05:04:07.518Z,7.30
2023-03-25T05:06:40.602Z,7.70
2023-03-25T05:09:12.195Z,7.03
2023-03-25T05:11:41.699Z,7.25
2023-03-25T05:14:10.569Z,7.85
2023-03-25T05:16:38.075Z,7.57
2023-03-25T05:19:06.666Z,8.00
2023-03-25T05:21:38.376Z,8.13
2023-03-25T05:24:10.785Z,8.53
2023-03-25T05:26:39.980Z,7.90
2023-03-25T05:29:13.997Z,8.20
2023-03-25T05:31:43.001Z,7.40
2023-03-25T05:34:10.129Z,7.80
2023-03-25T05:36:37.419Z,8.57
2023-03-25T05:39:05.659Z,8.18
2023-03-25T05:41:33.168Z,8.70
2023-03-25T05:44:01.262Z,8.90
2023-03-25T05:46:31.574Z,10.23
2023-03-25T05:49:00.850Z,11.63
2023-03-25T05:51:33.802Z,18.13
2023-03-25T05:54:01.649Z,24.73
2023-03-25T05:56:29.827Z,26.08
2023-03-25T05:58:57.507Z,17.63
2023-03-25T06:01:33.118Z,18.33
2023-03-25T06:04:02.570Z,22.75
2023-03-25T06:06:33.895Z,31.87
2023-03-25T06:09:02.380Z,34.17
2023-03-25T06:11:29.681Z,35.23
2023-03-25T06:13:57.131Z,27.43
2023-03-25T06:16:29.659Z,19.33
2023-03-25T06:19:00.627Z,25.23
2023-03-25T06:21:35.571Z,42.23
2023-03-25T06:24:02.914Z,38.60
2023-03-25T06:26:30.329Z,38.07
2023-03-25T06:28:58.389Z,41.50
2023-03-25T06:31:26.996Z,43.87
2023-03-25T06:33:55.943Z,47.70
2023-03-25T06:36:25.696Z,50.07
2023-03-25T06:38:54.071Z,47.90
2023-03-25T06:41:25.712Z,44.63
2023-03-25T06:44:04.976Z,50.73
2023-03-25T06:46:47.157Z,42.87
2023-03-25T06:49:22.983Z,43.80
2023-03-25T06:51:50.447Z,44.67
2023-03-25T06:54:18.577Z,45.47
2023-03-25T06:56:45.593Z,45.60
2023-03-25T06:59:12.556Z,45.43
2023-03-25T07:01:40.194Z,45.60
2023-03-25T07:04:07.237Z,52.73
2023-03-25T07:06:34.185Z,56.00
2023-03-25T07:09:01.099Z,58.87
2023-03-25T07:11:31.006Z,54.80
2023-03-25T07:13:58.114Z,54.77
2023-03-25T07:16:27.008Z,54.50
2023-03-25T07:18:57.347Z,52.53
2023-03-25T07:21:24.909Z,44.27
2023-03-25T07:23:52.540Z,50.83
2023-03-25T07:26:19.594Z,50.00
2023-03-25T07:28:48.009Z,50.50
2023-03-25T07:31:16.952Z,51.17
2023-03-25T07:33:44.100Z,54.83
2023-03-25T07:36:13.247Z,48.03
2023-03-25T07:38:40.689Z,55.35
2023-03-25T07:41:11.211Z,58.03
2023-03-25T07:43:43.066Z,40.78
2023-03-25T07:46:30.420Z,45.90
2023-03-25T07:48:57.561Z,45.53
2023-03-25T07:51:24.542Z,47.90
2023-03-25T07:53:51.483Z,51.70
2023-03-25T07:56:18.501Z,49.30
2023-03-25T07:58:46.458Z,55.72
2023-03-25T08:01:13.476Z,65.10
2023-03-25T08:03:40.754Z,84.95
2023-03-25T08:06:08.539Z,97.43
2023-03-25T08:08:36.143Z,101.17
2023-03-25T08:11:03.480Z,72.85
2023-03-25T08:13:31.084Z,74.10
2023-03-25T08:15:58.358Z,64.77
2023-03-25T08:18:26.052Z,62.80
2023-03-25T08:20:53.581Z,60.92
2023-03-25T08:23:22.527Z,58.67
2023-03-25T08:25:51.170Z,57.33
2023-03-25T08:28:23.771Z,52.40
2023-03-25T08:30:55.121Z,57.17
2023-03-25T08:33:27.304Z,54.38
2023-03-25T08:35:57.803Z,52.95
2023-03-25T08:38:25.514Z,51.50
2023-03-25T08:40:52.618Z,55.28
2023-03-25T08:43:19.690Z,56.50
2023-03-25T08:45:46.708Z,55.17
2023-03-25T08:48:13.849Z,58.30
2023-03-25T08:50:40.890Z,58.17
2023-03-25T08:53:08.036Z,59.78
2023-03-25T08:55:35.174Z,58.10
2023-03-25T08:58:06.299Z,59.47
2023-03-25T09:00:33.570Z,59.45
2023-03-25T09:03:00.918Z,56.25
2023-03-25T09:05:28.016Z,45.85
2023-03-25T09:07:55.119Z,49.20
2023-03-25T09:10:22.357Z,53.38
2023-03-25T09:12:49.374Z,49.90
2023-03-25T09:15:16.308Z,53.97
2023-03-25T09:17:43.368Z,40.28
2023-03-25T09:20:11.604Z,54.63
2023-03-25T09:22:40.073Z,54.30
2023-03-25T09:25:08.313Z,59.03
2023-03-25T09:27:35.744Z,47.55
2023-03-25T09:30:04.777Z,44.40
2023-03-25T09:32:31.780Z,49.97
2023-03-25T09:34:58.844Z,49.03
2023-03-25T09:37:26.110Z,49.10
2023-03-25T09:39:53.428Z,51.88
2023-03-25T09:42:48.890Z,52.38
2023-03-25T09:45:40.522Z,52.28
2023-03-25T09:48:25.183Z,47.20
2023-03-25T09:50:53.963Z,52.45
2023-03-25T09:53:30.954Z,49.55
2023-03-25T09:55:59.051Z,48.88
2023-03-25T09:58:43.725Z,51.60
2023-03-25T10:01:34.921Z,49.28
2023-03-25T10:04:17.387Z,51.55
2023-03-25T10:07:03.598Z,45.97
2023-03-25T10:10:18.552Z,51.25
2023-03-25T10:13:26.004Z,56.88
2023-03-25T10:16:14.175Z,58.75
2023-03-25T10:19:22.146Z,58.50
2023-03-25T10:22:19.148Z,56.47
2023-03-25T10:25:03.492Z,57.00
2023-03-25T10:27:49.959Z,55.90
2023-03-25T10:30:25.622Z,51.78
2023-03-25T10:33:02.230Z,55.38
2023-03-25T10:35:34.340Z,55.25
2023-03-25T10:38:26.330Z,58.50
2023-03-25T10:41:26.501Z,57.05
2023-03-25T10:43:54.240Z,57.10
2023-03-25T10:46:51.624Z,58.42
2023-03-25T10:49:26.021Z,56.00
2023-03-25T10:51:54.740Z,54.63
2023-03-25T10:54:36.335Z,51.33
2023-03-25T10:57:08.272Z,47.28
2023-03-25T10:59:54.883Z,50.30
2023-03-25T11:02:28.879Z,47.50
2023-03-25T11:05:07.788Z,51.38
2023-03-25T11:07:46.328Z,49.80
2023-03-25T11:10:32.478Z,48.08
2023-03-25T11:13:03.931Z,56.65
2023-03-25T11:15:36.567Z,56.08
2023-03-25T11:18:33.800Z,53.63
2023-03-25T11:21:13.678Z,49.97
2023-03-25T11:23:48.627Z,55.33
2023-03-25T11:26:24.554Z,49.72
2023-03-25T11:29:19.684Z,51.90
2023-03-25T11:31:58.920Z,50.53
2023-03-25T11:34:26.427Z,47.42
2023-03-25T11:36:59.224Z,45.00
2023-03-25T11:39:40.599Z,50.85
2023-03-25T11:42:39.906Z,57.78
2023-03-25T11:45:08.328Z,57.33
2023-03-25T11:47:40.554Z,56.10
2023-03-25T11:50:22.950Z,57.85
2023-03-25T11:52:58.593Z,53.97
2023-03-25T11:55:41.907Z,53.80
2023-03-25T11:58:16.491Z,49.10
2023-03-25T12:00:53.658Z,55.15
2023-03-25T12:03:27.382Z,54.15
2023-03-25T12:06:06.297Z,49.90
2023-03-25T12:08:57.317Z,52.75
2023-03-25T12:11:42.540Z,54.50
2023-03-25T12:15:18.125Z,46.10
2023-03-25T12:18:03.918Z,48.17
2023-03-25T12:20:52.506Z,47.65
2023-03-25T12:24:13.904Z,41.28
2023-03-25T12:27:11.076Z,38.20
2023-03-25T12:30:22.051Z,41.70
2023-03-25T12:33:18.049Z,34.63
2023-03-25T12:36:01.535Z,39.20
2023-03-25T12:38:46.486Z,42.83
2023-03-25T12:41:40.551Z,53.30
2023-03-25T12:44:19.035Z,57.17
2023-03-25T12:47:04.126Z,56.45
2023-03-25T12:49:58.754Z,49.65
2023-03-25T12:53:25.311Z,52.55
2023-03-25T12:56:26.516Z,51.58
2023-03-25T12:59:13.626Z,51.83
2023-03-25T13:02:01.348Z,49.10
2023-03-25T13:04:55.959Z,52.42
2023-03-25T13:07:28.831Z,56.35
2023-03-25T13:10:04.973Z,57.83
2023-03-25T13:12:38.132Z,51.78
2023-03-25T13:15:29.951Z,57.38
2023-03-25T13:18:07.278Z,58.65
2023-03-25T13:20:40.396Z,54.45
2023-03-25T13:23:12.764Z,57.95
2023-03-25T13:26:00.866Z,57.80
2023-03-25T13:28:38.592Z,49.53
2023-03-25T13:31:17.251Z,55.20
2023-03-25T13:33:53.122Z,50.13
2023-03-25T13:36:45.350Z,50.80
2023-03-25T13:39:29.063Z,51.42
2023-03-25T13:42:16.136Z,47.58
2023-03-25T13:44:47.011Z,46.45
2023-03-25T13:47:43.413Z,44.40
2023-03-25T13:50:26.938Z,48.90
2023-03-25T13:53:09.224Z,50.83
2023-03-25T13:55:41.132Z,56.15
2023-03-25T13:59:04.896Z,52.17
2023-03-25T14:01:36.136Z,47.33
2023-03-25T14:04:26.299Z,50.10
2023-03-25T14:07:48.252Z,53.53
2023-03-25T14:10:38.793Z,58.78
2023-03-25T14:13:25.006Z,59.33
2023-03-25T14:16:08.758Z,62.00
2023-03-25T14:18:46.082Z,60.17
2023-03-25T14:21:31.192Z,59.78
2023-03-25T14:24:34.967Z,58.30
2023-03-25T14:27:08.019Z,59.70
2023-03-25T14:29:40.674Z,59.90
2023-03-25T14:32:16.550Z,58.92
2023-03-25T14:34:52.179Z,58.15
2023-03-25T14:37:30.533Z,59.17
2023-03-25T14:40:22.492Z,61.78
2023-03-25T14:43:00.394Z,59.00
2023-03-25T14:45:42.309Z,57.83
2023-03-25T14:48:26.243Z,59.28
2023-03-25T14:51:14.369Z,57.55
2023-03-25T14:53:51.155Z,57.70
2023-03-25T14:56:24.408Z,55.83
2023-03-25T14:58:58.378Z,58.22
2023-03-25T15:01:34.874Z,59.45
2023-03-25T15:04:22.959Z,24.50
2023-03-25T15:06:50.473Z,3.63
2023-03-25T15:09:19.346Z,3.05
2023-03-25T15:12:05.150Z,10.32
2023-03-25T15:14:37.266Z,16.58
2023-03-25T15:17:08.938Z,30.75
2023-03-25T15:20:10.617Z,30.63
2023-03-25T15:22:38.634Z,33.00
2023-03-25T15:25:19.372Z,34.63
2023-03-25T15:28:11.196Z,40.47
2023-03-25T15:31:10.430Z,45.00
2023-03-25T15:33:52.413Z,48.57
2023-03-25T15:36:46.722Z,46.05
2023-03-25T15:39:53.287Z,46.40
2023-03-25T15:42:44.014Z,47.40
2023-03-25T15:45:31.058Z,50.57
2023-03-25T15:48:27.659Z,51.63
2023-03-25T15:50:57.561Z,54.20
2023-03-25T15:53:54.827Z,55.07
2023-03-25T15:56:25.952Z,54.17
2023-03-25T15:59:05.670Z,55.80
2023-03-25T16:01:39.440Z,57.20
2023-03-25T16:04:36.320Z,55.40
2023-03-25T16:07:07.113Z,54.47
2023-03-25T16:09:41.543Z,53.57
2023-03-25T16:12:11.033Z,55.93
2023-03-25T16:14:39.596Z,55.33
2023-03-25T16:17:08.848Z,56.07
2023-03-25T16:19:43.387Z,55.73
2023-03-25T16:22:31.844Z,71.63
2023-03-25T16:25:09.390Z,99.63
2023-03-25T16:27:44.238Z,105.90
2023-03-25T16:30:26.301Z,69.27
2023-03-25T16:32:53.624Z,70.33
2023-03-25T16:35:25.304Z,82.87
2023-03-25T16:37:58.474Z,81.43
2023-03-25T16:40:33.077Z,85.03
2023-03-25T16:43:07.016Z,84.60
2023-03-25T16:45:35.682Z,64.30
2023-03-25T16:48:07.588Z,60.60
2023-03-25T16:50:35.514Z,57.50
2023-03-25T16:53:03.085Z,55.73
2023-03-25T16:55:50.671Z,56.13
2023-03-25T16:58:20.991Z,57.83
2023-03-25T17:00:51.810Z,57.87
2023-03-25T17:03:47.298Z,58.20
2023-03-25T17:06:30.981Z,58.20
2023-03-25T17:08:59.778Z,57.97
2023-03-25T17:11:30.489Z,57.00
2023-03-25T17:14:06.209Z,55.07
2023-03-25T17:16:33.983Z,55.53
2023-03-25T17:19:02.131Z,56.73
2023-03-25T17:21:33.024Z,56.57
2023-03-25T17:24:21.469Z,56.63
2023-03-25T17:27:06.875Z,56.70
2023-03-25T17:29:33.888Z,60.20
2023-03-25T17:32:00.818Z,66.70
2023-03-25T17:34:27.900Z,63.43
2023-03-25T17:37:00.877Z,59.87
2023-03-25T17:39:33.653Z,64.40
2023-03-25T17:42:05.911Z,72.90
2023-03-25T17:44:43.868Z,71.47
2023-03-25T17:47:18.164Z,83.33
2023-03-25T17:49:45.290Z,69.80
2023-03-25T17:52:12.775Z,82.53
2023-03-25T17:54:39.812Z,71.13
2023-03-25T17:57:33.118Z,66.70
2023-03-25T18:00:00.272Z,63.50
2023-03-25T18:02:27.746Z,61.20
2023-03-25T18:04:54.751Z,58.17
2023-03-25T18:07:21.888Z,58.40
2023-03-25T18:09:48.946Z,43.03
2023-03-25T18:12:16.160Z,13.02
2023-03-25T18:14:44.442Z,16.27
2023-03-25T18:17:12.994Z,13.55
2023-03-25T18:19:40.776Z,11.63
2023-03-25T18:22:19.265Z,9.10
2023-03-25T18:24:47.453Z,9.07
2023-03-25T18:27:14.748Z,11.48
2023-03-25T18:29:42.117Z,11.60
2023-03-25T18:32:09.249Z,14.52
2023-03-25T18:34:36.255Z,16.63
2023-03-25T18:37:03.360Z,12.18
2023-03-25T18:39:32.138Z,10.82
2023-03-25T18:41:59.101Z,9.43
2023-03-25T18:44:28.332Z,6.10
2023-03-25T18:46:55.449Z,5.78
2023-03-25T18:49:22.410Z,5.80
2023-03-25T18:51:49.449Z,4.95
2023-03-25T18:54:16.851Z,4.53
2023-03-25T18:56:44.483Z,4.68
2023-03-25T18:59:16.848Z,6.38
2023-03-25T19:01:43.906Z,6.20
2023-03-25T19:04:10.865Z,6.93
2023-03-25T19:06:39.403Z,6.60
2023-03-25T19:09:08.935Z,7.03
2023-03-25T19:11:36.641Z,5.85
2023-03-25T19:14:04.051Z,6.00
2023-03-25T19:16:31.628Z,4.88
2023-03-25T19:19:00.515Z,7.83
2023-03-25T19:21:27.754Z,6.27
2023-03-25T19:23:55.211Z,4.50
2023-03-25T19:26:22.649Z,5.63
2023-03-25T19:28:49.921Z,4.30
2023-03-25T19:31:17.055Z,6.35
2023-03-25T19:33:44.396Z,7.70
2023-03-25T19:36:16.610Z,8.47
2023-03-25T19:38:43.923Z,8.23
2023-03-25T19:41:13.959Z,7.07
2023-03-25T19:43:41.318Z,7.23
2023-03-25T19:46:09.352Z,11.53
2023-03-25T19:48:36.760Z,12.77
2023-03-25T19:51:04.225Z,13.07
2023-03-25T19:53:31.507Z,17.17
2023-03-25T19:56:04.723Z,16.23
2023-03-25T19:58:32.627Z,13.52
2023-03-25T20:00:59.721Z,10.97
2023-03-25T20:03:26.901Z,6.27
2023-03-25T20:05:58.923Z,4.73
2023-03-25T20:08:26.507Z,3.88
2023-03-25T20:10:53.930Z,3.73
2023-03-25T20:13:21.339Z,3.60
2023-03-25T20:15:52.795Z,3.57
2023-03-25T20:18:20.102Z,3.83
2023-03-25T20:20:47.146Z,4.00
2023-03-25T20:23:14.097Z,4.90
2023-03-25T20:25:41.196Z,4.50
2023-03-25T20:28:08.166Z,4.37
2023-03-25T20:30:35.738Z,4.80
2023-03-25T20:33:03.930Z,5.07
2023-03-25T20:35:32.005Z,5.43
2023-03-25T20:37:59.386Z,5.20
2023-03-25T20:40:37.322Z,6.47
2023-03-25T20:43:13.523Z,5.33
2023-03-25T20:45:40.601Z,6.23
2023-03-25T20:48:08.792Z,6.40
2023-03-25T20:50:36.577Z,5.73
2023-03-25T20:53:04.472Z,5.50
2023-03-25T20:55:31.649Z,6.10
2023-03-25T20:57:58.650Z,5.77
2023-03-25T21:00:25.627Z,6.07
2023-03-25T21:02:52.756Z,6.07
2023-03-25T21:05:19.850Z,7.60
2023-03-25T21:07:46.920Z,7.32
2023-03-25T21:10:14.222Z,6.87
2023-03-25T21:12:44.416Z,8.33
2023-03-25T21:15:14.889Z,7.63
2023-03-25T21:17:42.812Z,7.13
2023-03-25T21:20:10.839Z,8.07
2023-03-25T21:22:42.942Z,8.53
2023-03-25T21:25:11.014Z,12.00
2023-03-25T21:27:39.814Z,19.87
2023-03-25T21:30:12.210Z,20.83
2023-03-25T21:32:39.841Z,12.63
2023-03-25T21:35:09.021Z,9.53
2023-03-25T21:37:40.632Z,14.53
2023-03-25T21:40:11.202Z,10.03
2023-03-25T21:42:41.297Z,8.90
2023-03-25T21:45:12.000Z,7.63
2023-03-25T21:47:40.005Z,7.80
2023-03-25T21:50:10.406Z,7.83
2023-03-25T21:52:43.029Z,7.40
2023-03-25T21:55:11.072Z,7.80
2023-03-25T21:57:39.077Z,9.23
2023-03-25T22:00:08.546Z,14.13
2023-03-25T22:02:43.551Z,16.63
2023-03-25T22:05:13.228Z,11.87
2023-03-25T22:07:41.409Z,8.77
2023-03-25T22:10:10.170Z,13.43
2023-03-25T22:12:37.241Z,35.97
2023-03-25T22:15:04.783Z,59.80
2023-03-25T22:17:31.746Z,62.90
2023-03-25T22:19:58.681Z,59.13
2023-03-25T22:22:25.776Z,60.73
2023-03-25T22:24:52.733Z,60.30
2023-03-25T22:27:19.728Z,59.57
2023-03-25T22:29:46.670Z,58.67
2023-03-25T22:32:13.750Z,57.73
2023-03-25T22:34:40.808Z,58.37
2023-03-25T22:37:07.780Z,67.80
2023-03-25T22:39:34.932Z,69.37
2023-03-25T22:42:01.935Z,59.90
2023-03-25T22:44:29.342Z,58.83
2023-03-25T22:46:56.469Z,60.30
2023-03-25T22:49:23.506Z,60.23
2023-03-25T22:51:51.169Z,59.23
2023-03-25T22:54:18.342Z,59.07
2023-03-25T22:56:45.588Z,60.97
2023-03-25T22:59:14.655Z,62.57
2023-03-25T23:01:42.835Z,59.23
2023-03-25T23:04:09.929Z,58.97
2023-03-25T23:06:37.641Z,58.70
2023-03-25T23:09:08.787Z,59.90
2023-03-25T23:11:37.450Z,60.50
2023-03-25T23:14:12.944Z,61.30
2023-03-25T23:16:41.568Z,66.53
2023-03-25T23:19:09.973Z,64.63
2023-03-25T23:21:38.262Z,63.03
2023-03-25T23:24:06.848Z,64.63
2023-03-25T23:26:40.297Z,61.33
2023-03-25T23:29:10.967Z,59.73
2023-03-25T23:31:41.329Z,60.53
2023-03-25T23:34:12.302Z,59.00
2023-03-25T23:36:39.938Z,59.43
2023-03-25T23:39:11.057Z,57.83
2023-03-25T23:41:38.466Z,58.27
2023-03-25T23:44:06.117Z,56.73
2023-03-25T23:46:33.977Z,57.30
2023-03-25T23:49:04.175Z,57.80
2023-03-25T23:51:36.334Z,56.70
2023-03-25T23:54:05.906Z,57.30
2023-03-25T23:56:33.324Z,58.13
2023-03-25T23:59:01.591Z,59.93
